Anderson, Texas
Current Conditions -  °F | °C
As of 4:53 PM on Saturday 20 Dec 2014 (Local Time) from KCLL Reporting Station
Overcast Overcast  
Wind Chill: 11°   Ceiling: 1300
Heat Index: 11°   Visibility: 9mi
Dew Point:   Wind: 6mph
Humidity: 86%   Direction: 50°NE
Pressure: 30.17"   Gusts: NA
Location:  30.49°N, 95.99°W
Report Text: KCLL 202253Z 05005KT 9SM OVC013 11/08 A3017 RMK AO2 SLP213 T01060083
Loading
Personal Weather Stations






























Interactive Weather Map New forecast layout! Learn more

10-Day Weather Forecast

Advertisements
Track Severe Weather on mobile